createdAt,value
2023-02-14T00:01:25.237Z,5.95
2023-02-14T00:05:14.183Z,5.93
2023-02-14T00:09:03.401Z,5.94
2023-02-14T00:12:39.606Z,5.93
2023-02-14T00:16:21.471Z,5.92
2023-02-14T00:19:39.937Z,5.95
2023-02-14T00:23:28.777Z,5.96
2023-02-14T00:27:16.623Z,5.98
2023-02-14T00:30:47.615Z,5.94
2023-02-14T00:34:29.161Z,5.94
2023-02-14T00:38:12.310Z,5.86
2023-02-14T00:42:00.944Z,5.89
2023-02-14T00:45:50.046Z,5.92
2023-02-14T00:49:39.172Z,5.85
2023-02-14T00:53:28.375Z,5.90
2023-02-14T00:57:17.821Z,5.82
2023-02-14T01:00:56.530Z,5.94
2023-02-14T01:04:22.458Z,6.02
2023-02-14T01:08:01.381Z,5.99
2023-02-14T01:11:50.239Z,5.98
2023-02-14T01:15:11.412Z,5.90
2023-02-14T01:19:00.635Z,5.93
2023-02-14T01:22:49.828Z,5.93
2023-02-14T01:26:32.489Z,5.95
2023-02-14T01:30:00.844Z,5.94
2023-02-14T01:33:40.397Z,5.96
2023-02-14T01:37:18.172Z,5.87
2023-02-14T01:41:07.477Z,5.94
2023-02-14T01:44:56.562Z,6.13
2023-02-14T01:48:45.856Z,5.88
2023-02-14T01:52:22.901Z,5.80
2023-02-14T01:56:00.564Z,5.90
2023-02-14T01:59:43.331Z,5.87
2023-02-14T02:03:25.810Z,5.96
2023-02-14T02:07:15.060Z,6.07
2023-02-14T02:11:04.098Z,6.05
2023-02-14T02:14:43.263Z,6.04
2023-02-14T02:18:50.622Z,6.03
2023-02-14T02:22:55.020Z,5.97
2023-02-14T02:27:03.200Z,5.97
2023-02-14T02:30:54.921Z,5.89
2023-02-14T02:35:02.101Z,5.86
2023-02-14T02:38:48.715Z,5.73
2023-02-14T02:43:06.830Z,5.81
2023-02-14T02:47:07.619Z,5.77
2023-02-14T02:50:53.872Z,5.81
2023-02-14T02:54:34.174Z,5.75
2023-02-14T02:58:23.328Z,5.76
2023-02-14T03:02:04.691Z,5.68
2023-02-14T03:05:50.844Z,5.65
2023-02-14T03:09:24.990Z,5.62
2023-02-14T03:13:09.103Z,5.63
2023-02-14T03:17:16.314Z,5.64
2023-02-14T03:21:23.368Z,5.62
2023-02-14T03:25:21.247Z,5.79
2023-02-14T03:29:17.699Z,5.65
2023-02-14T03:33:06.839Z,5.70
2023-02-14T03:36:46.554Z,5.73
2023-02-14T03:40:40.869Z,5.84
2023-02-14T03:44:10.285Z,5.85
2023-02-14T03:47:57.147Z,5.77
2023-02-14T03:51:36.432Z,5.74
2023-02-14T03:55:11.474Z,5.47
2023-02-14T03:59:12.888Z,5.56
2023-02-14T04:03:13.649Z,5.61
2023-02-14T04:06:41.372Z,5.65
2023-02-14T04:09:53.200Z,5.53
2023-02-14T04:13:28.905Z,5.38
2023-02-14T04:16:59.893Z,5.39
2023-02-14T04:20:45.304Z,5.41
2023-02-14T04:24:33.842Z,5.35
2023-02-14T04:28:09.158Z,5.40
2023-02-14T04:31:58.288Z,5.56
2023-02-14T04:35:37.554Z,5.59
2023-02-14T04:39:00.637Z,5.61
2023-02-14T04:42:32.850Z,5.57
2023-02-14T04:46:21.927Z,5.52
2023-02-14T04:50:00.816Z,5.60
2023-02-14T04:53:43.249Z,5.66
2023-02-14T04:57:32.673Z,5.67
2023-02-14T05:01:09.821Z,5.67
2023-02-14T05:04:49.797Z,5.64
2023-02-14T05:08:39.459Z,5.62
2023-02-14T05:12:21.827Z,5.61
2023-02-14T05:16:10.908Z,5.54
2023-02-14T05:19:59.996Z,5.51
2023-02-14T05:23:49.238Z,5.58
2023-02-14T05:27:27.848Z,5.59
2023-02-14T05:31:19.921Z,5.60
2023-02-14T05:35:09.078Z,5.58
2023-02-14T05:38:58.277Z,5.69
2023-02-14T05:42:22.496Z,5.73
2023-02-14T05:46:01.204Z,5.77
2023-02-14T05:49:50.507Z,5.75
2023-02-14T05:53:06.146Z,5.69
2023-02-14T05:56:14.779Z,5.75
2023-02-14T06:00:04.220Z,5.74
2023-02-14T06:03:10.285Z,5.71
2023-02-14T06:06:42.304Z,5.66
2023-02-14T06:09:57.869Z,5.68
2023-02-14T06:13:47.820Z,5.71
2023-02-14T06:17:29.405Z,5.70
2023-02-14T06:21:17.546Z,5.70
2023-02-14T06:25:06.680Z,5.81
2023-02-14T06:28:58.666Z,5.85
2023-02-14T06:32:37.554Z,5.77
2023-02-14T06:36:26.765Z,5.78
2023-02-14T06:40:16.016Z,5.91
2023-02-14T06:43:40.123Z,5.87
2023-02-14T06:47:14.705Z,5.94
2023-02-14T06:50:56.209Z,5.92
2023-02-14T06:54:37.992Z,5.85
2023-02-14T06:58:19.482Z,5.83
2023-02-14T07:02:01.307Z,5.94
2023-02-14T07:05:26.480Z,5.97
2023-02-14T07:09:01.567Z,5.96
2023-02-14T07:12:50.688Z,5.93
2023-02-14T07:16:39.659Z,6.23
2023-02-14T07:20:00.129Z,6.32
2023-02-14T07:23:32.718Z,6.44
2023-02-14T07:27:08.924Z,6.48
2023-02-14T07:30:50.820Z,6.63
2023-02-14T07:34:38.467Z,6.63
2023-02-14T07:38:20.341Z,6.51
2023-02-14T07:41:49.453Z,6.73
2023-02-14T07:45:20.648Z,6.74
2023-02-14T07:49:00.200Z,6.83
2023-02-14T07:52:34.628Z,6.94
2023-02-14T07:56:22.532Z,6.97
2023-02-14T08:00:11.700Z,7.15
2023-02-14T08:03:49.271Z,7.12
2023-02-14T08:07:21.567Z,7.19
2023-02-14T08:10:56.111Z,7.40
2023-02-14T08:14:34.013Z,7.70
2023-02-14T08:18:08.904Z,7.78
2023-02-14T08:21:51.460Z,7.70
2023-02-14T08:25:40.448Z,7.77
2023-02-14T08:29:22.277Z,7.67
2023-02-14T08:33:10.016Z,7.64
2023-02-14T08:36:57.969Z,7.72
2023-02-14T08:40:23.482Z,7.74
2023-02-14T08:44:12.542Z,7.84
2023-02-14T08:48:02.127Z,8.02
2023-02-14T08:51:46.131Z,7.99
2023-02-14T08:55:35.119Z,7.95
2023-02-14T08:59:24.091Z,8.08
2023-02-14T09:03:13.215Z,8.13
2023-02-14T09:07:05.314Z,8.22
2023-02-14T09:10:40.322Z,8.24
2023-02-14T09:14:17.037Z,8.41
2023-02-14T09:18:06.532Z,8.40
2023-02-14T09:21:55.568Z,8.28
2023-02-14T09:25:37.063Z,8.28
2023-02-14T09:29:24.677Z,8.28
2023-02-14T09:33:06.119Z,8.40
2023-02-14T09:36:48.952Z,8.38
2023-02-14T09:40:31.552Z,8.63
2023-02-14T09:44:26.283Z,8.84
2023-02-14T09:48:14.083Z,8.77
2023-02-14T09:51:54.287Z,8.77
2023-02-14T09:55:38.501Z,8.89
2023-02-14T09:59:42.905Z,8.88
2023-02-14T10:03:56.686Z,9.16
2023-02-14T10:08:06.907Z,9.17
2023-02-14T10:12:04.841Z,9.17
2023-02-14T10:15:53.793Z,9.24
2023-02-14T10:19:56.704Z,9.57
2023-02-14T10:24:00.632Z,9.56
2023-02-14T10:34:59.291Z,9.84
2023-02-14T10:39:42.129Z,9.68
2023-02-14T10:44:14.308Z,9.31
2023-02-14T10:48:41.785Z,8.97
2023-02-14T10:56:27.264Z,9.74
2023-02-14T11:01:05.930Z,9.44
2023-02-14T11:05:35.929Z,9.68
2023-02-14T11:09:45.206Z,9.54
2023-02-14T11:17:08.545Z,9.65
2023-02-14T11:31:07.152Z,9.09
2023-02-14T11:43:17.591Z,9.26
2023-02-14T11:47:33.453Z,8.99
2023-02-14T11:52:01.590Z,9.17
2023-02-14T11:56:32.138Z,9.16
2023-02-14T12:10:20.032Z,10.14
2023-02-14T12:14:14.411Z,10.23
2023-02-14T12:23:04.332Z,10.31
2023-02-14T12:26:54.917Z,10.21
2023-02-14T12:30:47.331Z,10.23
2023-02-14T12:34:50.619Z,10.10
2023-02-14T12:44:21.036Z,9.84
2023-02-14T12:49:11.166Z,9.87
2023-02-14T12:53:43.133Z,9.95
2023-02-14T12:58:09.081Z,10.01
2023-02-14T13:02:57.247Z,10.04
2023-02-14T13:07:28.569Z,9.88
2023-02-14T13:11:35.136Z,10.05
2023-02-14T13:22:19.842Z,9.88
2023-02-14T13:26:27.162Z,9.41
2023-02-14T13:34:43.772Z,9.94
2023-02-14T13:42:40.493Z,9.84
2023-02-14T13:46:33.069Z,9.66
2023-02-14T13:50:27.631Z,9.68
2023-02-14T13:58:28.731Z,9.84
2023-02-14T14:02:21.639Z,9.47
2023-02-14T14:06:14.591Z,9.49
2023-02-14T14:13:57.109Z,9.52
2023-02-14T14:26:19.107Z,9.21
2023-02-14T14:30:27.637Z,8.95
2023-02-14T14:34:20.160Z,8.97
2023-02-14T14:38:36.044Z,9.01
2023-02-14T14:42:37.245Z,8.82
2023-02-14T14:46:38.281Z,8.57
2023-02-14T14:50:29.159Z,8.86
2023-02-14T14:54:25.894Z,8.90
2023-02-14T14:58:39.833Z,8.80
2023-02-14T15:02:39.362Z,8.70
2023-02-14T15:06:31.790Z,8.55
2023-02-14T15:10:47.011Z,8.35
2023-02-14T15:15:22.844Z,8.54
2023-02-14T15:20:02.089Z,8.57
2023-02-14T15:24:31.812Z,8.61
2023-02-14T15:29:08.660Z,8.32
2023-02-14T15:33:33.807Z,8.23
2023-02-14T15:38:04.004Z,8.25
2023-02-14T15:42:24.965Z,8.13
2023-02-14T15:46:39.257Z,8.05
2023-02-14T15:50:28.876Z,7.75
2023-02-14T15:54:22.359Z,7.66
2023-02-14T15:58:17.886Z,7.70
2023-02-14T16:02:21.800Z,7.71
2023-02-14T16:06:50.258Z,7.79
2023-02-14T16:10:45.976Z,7.57
2023-02-14T16:14:36.307Z,7.57
2023-02-14T16:18:26.558Z,7.71
2023-02-14T16:22:36.174Z,7.76
2023-02-14T16:27:08.085Z,7.62
2023-02-14T16:37:14.259Z,7.34
2023-02-14T16:41:45.300Z,7.06
2023-02-14T16:45:40.240Z,6.91
2023-02-14T16:50:13.027Z,6.68
2023-02-14T16:54:34.615Z,6.51
2023-02-14T16:58:28.384Z,6.32
2023-02-14T17:02:18.396Z,6.18
2023-02-14T17:06:08.107Z,6.06
2023-02-14T17:09:57.780Z,5.70
2023-02-14T17:13:41.147Z,5.65
2023-02-14T17:17:22.523Z,5.57
2023-02-14T17:21:52.837Z,5.41
2023-02-14T17:26:22.664Z,5.19
2023-02-14T17:30:53.883Z,4.97
2023-02-14T17:35:03.270Z,4.79
2023-02-14T17:39:31.512Z,4.58
2023-02-14T17:44:02.424Z,4.38
2023-02-14T17:48:32.655Z,4.14
2023-02-14T17:53:04.482Z,4.00
2023-02-14T17:57:35.629Z,3.83
2023-02-14T18:02:08.582Z,3.72
2023-02-14T18:06:39.201Z,3.56
2023-02-14T18:11:10.009Z,3.40
2023-02-14T18:15:41.745Z,3.16
2023-02-14T18:20:13.429Z,2.97
2023-02-14T18:24:45.902Z,2.79
2023-02-14T18:29:16.269Z,2.64
2023-02-14T18:33:49.066Z,2.49
2023-02-14T18:38:18.974Z,2.38
2023-02-14T18:42:48.638Z,2.31
2023-02-14T18:47:18.152Z,2.21
2023-02-14T18:51:53.900Z,2.16
2023-02-14T18:56:23.915Z,2.09
2023-02-14T19:00:54.914Z,2.03
2023-02-14T19:05:27.059Z,1.98
2023-02-14T19:09:58.622Z,1.89
2023-02-14T19:14:29.416Z,1.86
2023-02-14T19:19:00.138Z,1.82
2023-02-14T19:23:30.370Z,1.74
2023-02-14T19:28:05.001Z,1.67
2023-02-14T19:35:37.714Z,1.64
2023-02-14T19:40:06.281Z,1.63
2023-02-14T19:44:44.927Z,1.65
2023-02-14T19:49:15.104Z,1.55
2023-02-14T19:53:47.604Z,1.58
2023-02-14T19:58:18.260Z,1.44
2023-02-14T20:02:49.673Z,1.48
2023-02-14T20:07:20.874Z,1.45
2023-02-14T20:15:52.179Z,1.31
2023-02-14T20:20:13.783Z,1.10
2023-02-14T20:23:46.375Z,1.09
2023-02-14T20:27:36.615Z,1.06
2023-02-14T20:31:15.953Z,1.01
2023-02-14T20:35:08.077Z,0.91
2023-02-14T20:38:52.211Z,0.85
2023-02-14T20:42:41.711Z,0.81
2023-02-14T20:45:53.725Z,0.81
2023-02-14T20:49:33.486Z,0.79
2023-02-14T20:52:31.062Z,0.73
2023-02-14T20:56:15.087Z,0.72
2023-02-14T20:59:48.353Z,0.75
2023-02-14T21:03:44.856Z,0.78
2023-02-14T21:07:18.371Z,0.65
2023-02-14T21:11:10.609Z,0.56
2023-02-14T21:14:49.607Z,0.43
2023-02-14T21:18:39.544Z,0.44
2023-02-14T21:22:30.134Z,0.39
2023-02-14T21:26:05.520Z,0.34
2023-02-14T21:29:41.557Z,0.26
2023-02-14T21:33:08.960Z,0.20
2023-02-14T21:36:58.682Z,0.17
2023-02-14T21:40:31.745Z,0.14
2023-02-14T21:44:20.684Z,0.12
2023-02-14T21:48:02.932Z,0.18
2023-02-14T21:51:46.299Z,0.18
2023-02-14T21:55:18.515Z,0.09
2023-02-14T21:58:35.284Z,0.08
2023-02-14T22:02:24.548Z,0.11
2023-02-14T22:06:02.881Z,0.05
2023-02-14T22:09:50.651Z,0.04
2023-02-14T22:13:14.890Z,0.03
2023-02-14T22:16:55.341Z,0.04
2023-02-14T22:20:43.232Z,-0.10
2023-02-14T22:24:28.454Z,-0.16
2023-02-14T22:28:06.336Z,-0.15
2023-02-14T22:31:55.566Z,-0.13
2023-02-14T22:35:34.356Z,-0.17
2023-02-14T22:39:14.748Z,-0.30
2023-02-14T22:43:03.991Z,-0.34
2023-02-14T22:46:52.953Z,-0.43
2023-02-14T22:50:35.379Z,-0.47
2023-02-14T22:54:25.512Z,-0.46
2023-02-14T22:58:14.920Z,-0.43
2023-02-14T23:02:19.422Z,-0.40
2023-02-14T23:06:49.840Z,-0.56
2023-02-14T23:11:18.847Z,-0.68
2023-02-14T23:15:46.403Z,-0.93
2023-02-14T23:20:13.968Z,-0.79
2023-02-14T23:24:43.293Z,-0.74
2023-02-14T23:29:21.861Z,-0.99
2023-02-14T23:33:33.844Z,-1.02
2023-02-14T23:38:05.081Z,-1.01
2023-02-14T23:42:37.554Z,-1.06
2023-02-14T23:47:06.600Z,-1.10
2023-02-14T23:51:40.535Z,-1.14
